Date,TemperatureHighF,TemperatureAvgF,TemperatureLowF,DewpointHighF,DewpointAvgF,DewpointLowF,HumidityHigh,HumidityAvg,HumidityLow,PressureMaxIn,PressureMinIn,WindSpeedMaxMPH,WindSpeedAvgMPH,GustSpeedMaxMPH,PrecipitationSumIn
2013-4-1,48.4,34.4,23.0,40.0,29.2,13.0,97,82,51,30.13,29.86,10,3,20,0.07
2013-4-2,30.8,23.7,18.5,18.0,12.3,9.0,83,63,44,30.34,30.13,14,6,23,0.00
2013-4-3,33.4,25.3,20.4,16.0,13.5,11.0,80,62,47,30.64,30.31,17,5,23,0.00
2013-4-4,50.0,34.6,17.7,21.0,16.5,12.0,88,52,26,30.69,30.33,8,2,16,0.00
2013-4-5,49.1,38.2,27.7,25.0,18.6,9.0,73,47,33,30.31,30.04,11,3,20,0.00
2013-4-6,43.1,31.0,20.8,20.0,9.5,3.0,78,45,20,30.59,30.25,12,3,18,0.00
2013-4-7,55.6,44.8,29.6,38.0,24.8,11.0,64,47,33,30.55,30.20,16,4,24,0.00
2013-4-8,65.6,49.6,34.0,42.0,35.3,31.0,92,62,30,30.34,30.19,9,2,13,0.00
2013-4-9,62.1,57.2,51.3,49.0,43.1,39.0,78,60,44,30.22,30.10,14,3,23,0.01
2013-4-10,57.2,51.2,45.9,54.0,48.3,40.0,98,90,63,30.18,30.02,5,1,10,0.62
2013-4-11,52.2,40.9,33.4,51.0,36.6,23.0,97,85,58,30.30,30.05,6,1,11,0.02
2013-4-12,35.0,33.2,31.8,34.0,32.0,30.0,98,95,88,30.27,30.02,18,5,24,0.32
2013-4-13,47.1,40.0,33.4,36.0,33.3,30.0,98,78,58,30.20,30.07,7,2,12,0.01
2013-4-14,41.2,35.3,29.7,32.0,27.0,24.0,90,73,54,30.50,30.19,9,3,15,0.00
2013-4-15,59.0,43.2,29.0,37.0,30.1,24.0,84,62,41,30.64,30.50,13,2,15,0.00
2013-4-16,57.3,50.8,42.3,53.0,44.5,30.0,95,79,60,30.58,30.32,16,4,32,0.18
2013-4-17,58.0,47.4,36.5,51.0,34.7,29.0,95,65,36,30.55,30.35,9,2,16,0.03
2013-4-18,57.7,47.8,39.0,52.0,36.7,28.0,97,67,46,30.55,30.28,14,5,28,0.00
2013-4-19,65.9,58.0,47.6,60.0,55.0,45.0,96,90,77,30.28,29.74,19,5,25,1.02
2013-4-20,46.9,39.3,28.8,44.0,29.6,18.0,96,71,44,30.52,29.84,11,4,19,0.13
2013-4-21,45.9,34.3,24.4,22.0,18.8,16.0,79,56,32,30.88,30.53,6,2,18,0.00
2013-4-22,50.0,39.8,30.3,30.0,22.2,17.0,76,52,32,30.91,30.72,13,3,18,0.00
2013-4-23,44.3,37.1,28.1,39.0,32.3,24.0,93,83,68,30.72,30.38,6,2,16,0.00
2013-4-24,70.2,52.2,32.2,52.0,41.9,31.0,98,72,40,30.37,29.97,12,2,26,0.00
2013-4-25,53.8,43.4,33.1,49.0,28.2,21.0,91,59,30,30.49,30.01,11,3,23,0.01
2013-4-26,55.6,43.3,33.2,34.0,27.9,25.0,82,57,32,30.67,30.48,6,2,17,0.00
2013-4-27,63.5,47.3,30.4,34.0,28.7,23.0,82,52,28,30.67,30.51,6,2,14,0.00
2013-4-28,67.7,54.7,39.9,38.0,33.6,29.0,68,47,27,30.53,30.33,9,2,18,0.00
2013-4-29,52.3,47.3,44.8,46.0,41.6,33.0,95,81,50,30.42,30.35,12,4,20,0.07
2013-4-30,66.3,52.9,44.4,48.0,42.3,34.0,93,70,46,30.52,30.41,6,1,15,0.00